sensor_id;sensor_type;location;lat;lon;timestamp;P1;durP1;ratioP1;P2;durP2;ratioP2
6757;SDS011;3416;53.074;8.822;2023-06-14T00:01:02;3.90;;;3.20;;
6757;SDS011;3416;53.074;8.822;2023-06-14T00:03:31;10.77;;;3.57;;
6757;SDS011;3416;53.074;8.822;2023-06-14T00:05:58;4.63;;;2.73;;
6757;SDS011;3416;53.074;8.822;2023-06-14T00:08:25;3.50;;;3.20;;
6757;SDS011;3416;53.074;8.822;2023-06-14T00:10:53;5.80;;;3.60;;
6757;SDS011;3416;53.074;8.822;2023-06-14T00:13:20;5.93;;;2.87;;
6757;SDS011;3416;53.074;8.822;2023-06-14T00:15:47;4.83;;;2.93;;
6757;SDS011;3416;53.074;8.822;2023-06-14T00:18:14;3.73;;;2.87;;
6757;SDS011;3416;53.074;8.822;2023-06-14T00:20:41;4.60;;;3.20;;
6757;SDS011;3416;53.074;8.822;2023-06-14T00:23:08;3.63;;;3.00;;
6757;SDS011;3416;53.074;8.822;2023-06-14T00:25:35;3.30;;;3.00;;
6757;SDS011;3416;53.074;8.822;2023-06-14T00:28:03;5.82;;;3.80;;
6757;SDS011;3416;53.074;8.822;2023-06-14T00:30:30;4.95;;;3.33;;
6757;SDS011;3416;53.074;8.822;2023-06-14T00:32:57;4.10;;;2.67;;
6757;SDS011;3416;53.074;8.822;2023-06-14T00:35:24;6.53;;;3.00;;
6757;SDS011;3416;53.074;8.822;2023-06-14T00:37:51;3.80;;;2.97;;
6757;SDS011;3416;53.074;8.822;2023-06-14T00:40:19;6.73;;;3.00;;
6757;SDS011;3416;53.074;8.822;2023-06-14T00:42:47;7.13;;;2.97;;
6757;SDS011;3416;53.074;8.822;2023-06-14T00:45:15;5.43;;;3.22;;
6757;SDS011;3416;53.074;8.822;2023-06-14T00:47:43;5.93;;;2.90;;
6757;SDS011;3416;53.074;8.822;2023-06-14T00:50:11;4.38;;;3.25;;
6757;SDS011;3416;53.074;8.822;2023-06-14T00:52:39;5.20;;;3.73;;
6757;SDS011;3416;53.074;8.822;2023-06-14T00:55:06;10.40;;;3.40;;
6757;SDS011;3416;53.074;8.822;2023-06-14T00:57:33;5.30;;;3.40;;
6757;SDS011;3416;53.074;8.822;2023-06-14T01:00:03;6.70;;;2.88;;
6757;SDS011;3416;53.074;8.822;2023-06-14T01:02:35;3.07;;;2.73;;
6757;SDS011;3416;53.074;8.822;2023-06-14T01:05:02;3.45;;;3.15;;
6757;SDS011;3416;53.074;8.822;2023-06-14T01:07:33;4.60;;;3.15;;
6757;SDS011;3416;53.074;8.822;2023-06-14T01:10:10;4.28;;;3.03;;
6757;SDS011;3416;53.074;8.822;2023-06-14T01:12:48;3.67;;;2.60;;
6757;SDS011;3416;53.074;8.822;2023-06-14T01:15:22;3.03;;;2.50;;
6757;SDS011;3416;53.074;8.822;2023-06-14T01:17:51;5.97;;;3.00;;
6757;SDS011;3416;53.074;8.822;2023-06-14T01:20:19;3.60;;;3.03;;
6757;SDS011;3416;53.074;8.822;2023-06-14T01:22:51;6.20;;;3.20;;
6757;SDS011;3416;53.074;8.822;2023-06-14T01:25:19;4.65;;;2.70;;
6757;SDS011;3416;53.074;8.822;2023-06-14T01:27:48;5.15;;;3.50;;
6757;SDS011;3416;53.074;8.822;2023-06-14T01:30:16;3.17;;;2.47;;
6757;SDS011;3416;53.074;8.822;2023-06-14T01:32:44;4.70;;;3.45;;
6757;SDS011;3416;53.074;8.822;2023-06-14T01:35:12;7.97;;;3.20;;
6757;SDS011;3416;53.074;8.822;2023-06-14T01:37:39;8.18;;;3.50;;
6757;SDS011;3416;53.074;8.822;2023-06-14T01:40:08;4.88;;;3.35;;
6757;SDS011;3416;53.074;8.822;2023-06-14T01:42:37;5.40;;;3.60;;
6757;SDS011;3416;53.074;8.822;2023-06-14T01:45:05;5.35;;;3.00;;
6757;SDS011;3416;53.074;8.822;2023-06-14T01:51:09;5.68;;;2.78;;
6757;SDS011;3416;53.074;8.822;2023-06-14T01:53:36;5.57;;;3.97;;
6757;SDS011;3416;53.074;8.822;2023-06-14T01:56:05;6.28;;;3.90;;
6757;SDS011;3416;53.074;8.822;2023-06-14T01:58:32;3.97;;;3.10;;
6757;SDS011;3416;53.074;8.822;2023-06-14T02:01:00;4.57;;;2.67;;
6757;SDS011;3416;53.074;8.822;2023-06-14T02:03:27;4.57;;;2.70;;
6757;SDS011;3416;53.074;8.822;2023-06-14T02:05:55;6.85;;;3.00;;
6757;SDS011;3416;53.074;8.822;2023-06-14T02:08:22;7.43;;;3.17;;
6757;SDS011;3416;53.074;8.822;2023-06-14T02:10:49;6.20;;;3.50;;
6757;SDS011;3416;53.074;8.822;2023-06-14T02:13:17;3.65;;;3.00;;
6757;SDS011;3416;53.074;8.822;2023-06-14T02:15:44;3.85;;;3.45;;
6757;SDS011;3416;53.074;8.822;2023-06-14T02:18:11;11.30;;;4.30;;
6757;SDS011;3416;53.074;8.822;2023-06-14T02:20:38;10.32;;;3.42;;
6757;SDS011;3416;53.074;8.822;2023-06-14T02:23:05;5.90;;;3.55;;
6757;SDS011;3416;53.074;8.822;2023-06-14T02:25:33;4.43;;;3.50;;
6757;SDS011;3416;53.074;8.822;2023-06-14T02:28:00;6.30;;;3.75;;
6757;SDS011;3416;53.074;8.822;2023-06-14T02:30:28;6.20;;;4.28;;
6757;SDS011;3416;53.074;8.822;2023-06-14T02:32:56;6.95;;;3.30;;
6757;SDS011;3416;53.074;8.822;2023-06-14T02:35:24;3.80;;;3.40;;
6757;SDS011;3416;53.074;8.822;2023-06-14T02:37:52;3.90;;;2.97;;
6757;SDS011;3416;53.074;8.822;2023-06-14T02:40:19;5.57;;;3.03;;
6757;SDS011;3416;53.074;8.822;2023-06-14T02:42:46;4.43;;;3.60;;
6757;SDS011;3416;53.074;8.822;2023-06-14T02:45:13;6.47;;;3.47;;
6757;SDS011;3416;53.074;8.822;2023-06-14T02:47:41;4.95;;;3.55;;
6757;SDS011;3416;53.074;8.822;2023-06-14T02:50:08;6.72;;;3.67;;
6757;SDS011;3416;53.074;8.822;2023-06-14T02:52:35;6.53;;;4.68;;
6757;SDS011;3416;53.074;8.822;2023-06-14T02:55:03;6.63;;;3.95;;
6757;SDS011;3416;53.074;8.822;2023-06-14T02:57:31;7.07;;;3.50;;
6757;SDS011;3416;53.074;8.822;2023-06-14T02:59:58;6.32;;;4.18;;
6757;SDS011;3416;53.074;8.822;2023-06-14T03:02:27;6.30;;;4.18;;
6757;SDS011;3416;53.074;8.822;2023-06-14T03:04:56;4.40;;;3.95;;
6757;SDS011;3416;53.074;8.822;2023-06-14T03:07:26;6.72;;;4.47;;
6757;SDS011;3416;53.074;8.822;2023-06-14T03:09:54;6.80;;;5.07;;
6757;SDS011;3416;53.074;8.822;2023-06-14T03:12:22;5.43;;;4.65;;
6757;SDS011;3416;53.074;8.822;2023-06-14T03:14:54;3.45;;;3.15;;
6757;SDS011;3416;53.074;8.822;2023-06-14T03:17:23;4.63;;;3.58;;
6757;SDS011;3416;53.074;8.822;2023-06-14T03:19:59;6.07;;;3.83;;
6757;SDS011;3416;53.074;8.822;2023-06-14T03:22:27;6.45;;;4.03;;
6757;SDS011;3416;53.074;8.822;2023-06-14T03:24:54;5.28;;;3.50;;
6757;SDS011;3416;53.074;8.822;2023-06-14T03:27:23;4.60;;;4.20;;
6757;SDS011;3416;53.074;8.822;2023-06-14T03:29:49;5.10;;;3.60;;
6757;SDS011;3416;53.074;8.822;2023-06-14T03:32:16;4.55;;;4.00;;
6757;SDS011;3416;53.074;8.822;2023-06-14T03:34:43;5.00;;;4.00;;
6757;SDS011;3416;53.074;8.822;2023-06-14T03:37:11;5.53;;;3.50;;
6757;SDS011;3416;53.074;8.822;2023-06-14T03:39:38;10.70;;;3.88;;
6757;SDS011;3416;53.074;8.822;2023-06-14T03:42:11;10.63;;;5.50;;
6757;SDS011;3416;53.074;8.822;2023-06-14T03:44:40;4.70;;;3.85;;
6757;SDS011;3416;53.074;8.822;2023-06-14T03:47:06;9.93;;;4.30;;
6757;SDS011;3416;53.074;8.822;2023-06-14T03:49:34;6.40;;;3.40;;
6757;SDS011;3416;53.074;8.822;2023-06-14T03:52:02;6.95;;;4.13;;
6757;SDS011;3416;53.074;8.822;2023-06-14T03:54:30;6.20;;;4.00;;
6757;SDS011;3416;53.074;8.822;2023-06-14T03:56:58;6.03;;;3.90;;
6757;SDS011;3416;53.074;8.822;2023-06-14T03:59:25;5.63;;;4.38;;
6757;SDS011;3416;53.074;8.822;2023-06-14T04:01:53;8.32;;;4.32;;
6757;SDS011;3416;53.074;8.822;2023-06-14T04:04:20;5.35;;;3.80;;
6757;SDS011;3416;53.074;8.822;2023-06-14T04:06:53;8.53;;;3.83;;
6757;SDS011;3416;53.074;8.822;2023-06-14T04:09:21;6.20;;;4.70;;
6757;SDS011;3416;53.074;8.822;2023-06-14T04:11:50;6.00;;;4.40;;
6757;SDS011;3416;53.074;8.822;2023-06-14T04:14:18;7.33;;;4.30;;
6757;SDS011;3416;53.074;8.822;2023-06-14T04:16:45;6.23;;;3.60;;
6757;SDS011;3416;53.074;8.822;2023-06-14T04:19:12;13.83;;;5.50;;
6757;SDS011;3416;53.074;8.822;2023-06-14T04:21:39;4.23;;;2.73;;
6757;SDS011;3416;53.074;8.822;2023-06-14T04:24:06;6.03;;;3.80;;
6757;SDS011;3416;53.074;8.822;2023-06-14T04:26:38;8.10;;;3.37;;
6757;SDS011;3416;53.074;8.822;2023-06-14T04:29:07;6.00;;;3.37;;
6757;SDS011;3416;53.074;8.822;2023-06-14T04:31:33;5.03;;;3.60;;
6757;SDS011;3416;53.074;8.822;2023-06-14T04:34:03;5.10;;;3.67;;
6757;SDS011;3416;53.074;8.822;2023-06-14T04:36:30;5.50;;;3.83;;
6757;SDS011;3416;53.074;8.822;2023-06-14T04:38:59;6.10;;;4.37;;
6757;SDS011;3416;53.074;8.822;2023-06-14T04:41:28;5.33;;;3.93;;
6757;SDS011;3416;53.074;8.822;2023-06-14T04:43:55;6.23;;;3.67;;
6757;SDS011;3416;53.074;8.822;2023-06-14T04:46:25;5.10;;;4.10;;
6757;SDS011;3416;53.074;8.822;2023-06-14T04:48:53;4.27;;;3.10;;
6757;SDS011;3416;53.074;8.822;2023-06-14T04:51:21;6.17;;;4.13;;
6757;SDS011;3416;53.074;8.822;2023-06-14T04:53:54;5.27;;;4.00;;
6757;SDS011;3416;53.074;8.822;2023-06-14T04:56:23;4.70;;;3.47;;
6757;SDS011;3416;53.074;8.822;2023-06-14T04:58:51;6.40;;;4.00;;
6757;SDS011;3416;53.074;8.822;2023-06-14T05:01:19;5.50;;;4.10;;
6757;SDS011;3416;53.074;8.822;2023-06-14T05:03:49;9.20;;;4.67;;
6757;SDS011;3416;53.074;8.822;2023-06-14T05:06:16;3.97;;;3.57;;
6757;SDS011;3416;53.074;8.822;2023-06-14T05:08:43;6.37;;;4.00;;
6757;SDS011;3416;53.074;8.822;2023-06-14T05:11:10;11.00;;;5.30;;
6757;SDS011;3416;53.074;8.822;2023-06-14T05:13:38;5.17;;;4.00;;
6757;SDS011;3416;53.074;8.822;2023-06-14T05:16:06;4.70;;;4.20;;
6757;SDS011;3416;53.074;8.822;2023-06-14T05:18:33;4.80;;;4.10;;
6757;SDS011;3416;53.074;8.822;2023-06-14T05:21:01;5.97;;;4.13;;
6757;SDS011;3416;53.074;8.822;2023-06-14T05:23:29;7.63;;;4.63;;
6757;SDS011;3416;53.074;8.822;2023-06-14T05:25:56;7.10;;;3.30;;
6757;SDS011;3416;53.074;8.822;2023-06-14T05:28:23;5.90;;;4.93;;
6757;SDS011;3416;53.074;8.822;2023-06-14T05:30:50;9.13;;;5.50;;
6757;SDS011;3416;53.074;8.822;2023-06-14T05:33:17;7.07;;;4.70;;
6757;SDS011;3416;53.074;8.822;2023-06-14T05:35:44;7.63;;;3.93;;
6757;SDS011;3416;53.074;8.822;2023-06-14T05:38:13;5.60;;;4.13;;
6757;SDS011;3416;53.074;8.822;2023-06-14T05:40:40;8.50;;;4.50;;
6757;SDS011;3416;53.074;8.822;2023-06-14T05:43:07;5.50;;;3.90;;
6757;SDS011;3416;53.074;8.822;2023-06-14T05:45:34;6.47;;;3.93;;
6757;SDS011;3416;53.074;8.822;2023-06-14T05:48:01;12.33;;;4.80;;
6757;SDS011;3416;53.074;8.822;2023-06-14T05:50:27;5.07;;;4.57;;
6757;SDS011;3416;53.074;8.822;2023-06-14T05:52:55;9.40;;;3.70;;
6757;SDS011;3416;53.074;8.822;2023-06-14T05:55:23;5.37;;;4.83;;
6757;SDS011;3416;53.074;8.822;2023-06-14T05:57:50;5.60;;;4.00;;
6757;SDS011;3416;53.074;8.822;2023-06-14T06:00:17;6.40;;;4.40;;
6757;SDS011;3416;53.074;8.822;2023-06-14T06:02:45;4.00;;;3.70;;
6757;SDS011;3416;53.074;8.822;2023-06-14T06:05:12;6.67;;;4.53;;
6757;SDS011;3416;53.074;8.822;2023-06-14T06:07:40;4.97;;;4.50;;
6757;SDS011;3416;53.074;8.822;2023-06-14T06:10:09;6.40;;;4.30;;
6757;SDS011;3416;53.074;8.822;2023-06-14T06:12:42;4.50;;;4.00;;
6757;SDS011;3416;53.074;8.822;2023-06-14T06:15:09;6.60;;;4.30;;
6757;SDS011;3416;53.074;8.822;2023-06-14T06:17:37;6.70;;;4.00;;
6757;SDS011;3416;53.074;8.822;2023-06-14T06:20:04;3.90;;;3.60;;
6757;SDS011;3416;53.074;8.822;2023-06-14T06:22:33;6.50;;;3.70;;
6757;SDS011;3416;53.074;8.822;2023-06-14T06:25:00;7.27;;;4.40;;
6757;SDS011;3416;53.074;8.822;2023-06-14T06:27:27;3.73;;;3.43;;
6757;SDS011;3416;53.074;8.822;2023-06-14T06:29:56;5.00;;;4.50;;
6757;SDS011;3416;53.074;8.822;2023-06-14T06:32:22;5.90;;;4.10;;
6757;SDS011;3416;53.074;8.822;2023-06-14T06:34:49;6.07;;;4.00;;
6757;SDS011;3416;53.074;8.822;2023-06-14T06:37:16;5.80;;;3.83;;
6757;SDS011;3416;53.074;8.822;2023-06-14T06:39:43;4.10;;;3.80;;
6757;SDS011;3416;53.074;8.822;2023-06-14T06:42:11;5.67;;;4.30;;
6757;SDS011;3416;53.074;8.822;2023-06-14T06:44:38;5.27;;;3.90;;
6757;SDS011;3416;53.074;8.822;2023-06-14T06:47:07;6.43;;;4.07;;
6757;SDS011;3416;53.074;8.822;2023-06-14T06:49:34;4.40;;;3.30;;
6757;SDS011;3416;53.074;8.822;2023-06-14T06:52:02;3.67;;;3.37;;
6757;SDS011;3416;53.074;8.822;2023-06-14T06:54:30;5.03;;;3.70;;
6757;SDS011;3416;53.074;8.822;2023-06-14T06:56:57;4.40;;;4.00;;
6757;SDS011;3416;53.074;8.822;2023-06-14T06:59:24;4.57;;;3.70;;
6757;SDS011;3416;53.074;8.822;2023-06-14T07:01:51;6.57;;;3.70;;
6757;SDS011;3416;53.074;8.822;2023-06-14T07:04:20;4.40;;;4.00;;
6757;SDS011;3416;53.074;8.822;2023-06-14T07:06:47;5.67;;;4.00;;
6757;SDS011;3416;53.074;8.822;2023-06-14T07:09:14;8.20;;;4.40;;
6757;SDS011;3416;53.074;8.822;2023-06-14T07:11:42;4.50;;;4.10;;
6757;SDS011;3416;53.074;8.822;2023-06-14T07:14:10;4.07;;;3.67;;
6757;SDS011;3416;53.074;8.822;2023-06-14T07:16:37;3.27;;;2.83;;
6757;SDS011;3416;53.074;8.822;2023-06-14T07:19:06;3.53;;;3.23;;
6757;SDS011;3416;53.074;8.822;2023-06-14T07:21:35;3.63;;;3.27;;
6757;SDS011;3416;53.074;8.822;2023-06-14T07:24:04;3.70;;;2.90;;
6757;SDS011;3416;53.074;8.822;2023-06-14T07:26:32;8.63;;;3.50;;
6757;SDS011;3416;53.074;8.822;2023-06-14T07:29:00;3.40;;;3.10;;
6757;SDS011;3416;53.074;8.822;2023-06-14T07:31:27;4.00;;;3.17;;
6757;SDS011;3416;53.074;8.822;2023-06-14T07:33:53;5.20;;;3.77;;
6757;SDS011;3416;53.074;8.822;2023-06-14T07:36:21;3.97;;;3.43;;
6757;SDS011;3416;53.074;8.822;2023-06-14T07:38:49;3.30;;;3.00;;
6757;SDS011;3416;53.074;8.822;2023-06-14T07:41:18;6.03;;;3.20;;
6757;SDS011;3416;53.074;8.822;2023-06-14T07:43:45;3.70;;;3.40;;
6757;SDS011;3416;53.074;8.822;2023-06-14T07:46:12;5.43;;;3.57;;
6757;SDS011;3416;53.074;8.822;2023-06-14T07:48:40;4.20;;;3.60;;
6757;SDS011;3416;53.074;8.822;2023-06-14T07:51:07;3.60;;;3.30;;
6757;SDS011;3416;53.074;8.822;2023-06-14T07:53:34;3.60;;;3.30;;
6757;SDS011;3416;53.074;8.822;2023-06-14T07:56:02;4.20;;;3.40;;
6757;SDS011;3416;53.074;8.822;2023-06-14T07:58:29;7.27;;;4.07;;
6757;SDS011;3416;53.074;8.822;2023-06-14T08:00:56;9.73;;;3.30;;
6757;SDS011;3416;53.074;8.822;2023-06-14T08:03:24;4.53;;;3.67;;
6757;SDS011;3416;53.074;8.822;2023-06-14T08:08:23;4.30;;;3.07;;
6757;SDS011;3416;53.074;8.822;2023-06-14T08:10:51;5.40;;;4.10;;
6757;SDS011;3416;53.074;8.822;2023-06-14T08:13:20;3.60;;;3.30;;
6757;SDS011;3416;53.074;8.822;2023-06-14T08:15:47;3.80;;;3.50;;
6757;SDS011;3416;53.074;8.822;2023-06-14T08:18:15;4.33;;;3.10;;
6757;SDS011;3416;53.074;8.822;2023-06-14T08:20:42;4.93;;;3.07;;
6757;SDS011;3416;53.074;8.822;2023-06-14T08:23:10;3.90;;;3.00;;
6757;SDS011;3416;53.074;8.822;2023-06-14T08:25:37;6.47;;;3.20;;
6757;SDS011;3416;53.074;8.822;2023-06-14T08:28:04;3.00;;;2.77;;
6757;SDS011;3416;53.074;8.822;2023-06-14T08:30:32;4.40;;;3.10;;
6757;SDS011;3416;53.074;8.822;2023-06-14T08:32:59;12.03;;;3.50;;
6757;SDS011;3416;53.074;8.822;2023-06-14T08:35:26;5.03;;;4.23;;
6757;SDS011;3416;53.074;8.822;2023-06-14T08:37:53;3.70;;;3.47;;
6757;SDS011;3416;53.074;8.822;2023-06-14T08:40:22;5.40;;;3.47;;
6757;SDS011;3416;53.074;8.822;2023-06-14T08:42:51;6.10;;;3.00;;
6757;SDS011;3416;53.074;8.822;2023-06-14T08:45:19;3.90;;;3.60;;
6757;SDS011;3416;53.074;8.822;2023-06-14T08:47:48;3.30;;;3.10;;
6757;SDS011;3416;53.074;8.822;2023-06-14T08:50:18;3.30;;;3.10;;
6757;SDS011;3416;53.074;8.822;2023-06-14T08:52:48;3.90;;;3.60;;
6757;SDS011;3416;53.074;8.822;2023-06-14T08:55:20;3.90;;;3.60;;
6757;SDS011;3416;53.074;8.822;2023-06-14T08:57:50;4.00;;;3.43;;
6757;SDS011;3416;53.074;8.822;2023-06-14T09:00:19;3.70;;;3.40;;
6757;SDS011;3416;53.074;8.822;2023-06-14T09:02:48;6.13;;;3.00;;
6757;SDS011;3416;53.074;8.822;2023-06-14T09:05:20;8.43;;;3.70;;
6757;SDS011;3416;53.074;8.822;2023-06-14T09:07:50;4.37;;;3.30;;
6757;SDS011;3416;53.074;8.822;2023-06-14T09:10:18;6.03;;;3.90;;
6757;SDS011;3416;53.074;8.822;2023-06-14T09:12:46;4.53;;;3.70;;
6757;SDS011;3416;53.074;8.822;2023-06-14T09:15:14;3.63;;;3.43;;
6757;SDS011;3416;53.074;8.822;2023-06-14T09:17:42;3.70;;;3.30;;
6757;SDS011;3416;53.074;8.822;2023-06-14T09:20:10;4.00;;;3.27;;
6757;SDS011;3416;53.074;8.822;2023-06-14T09:22:38;5.80;;;3.77;;
6757;SDS011;3416;53.074;8.822;2023-06-14T09:25:07;4.60;;;4.00;;
6757;SDS011;3416;53.074;8.822;2023-06-14T09:27:34;3.50;;;3.20;;
6757;SDS011;3416;53.074;8.822;2023-06-14T09:30:02;5.40;;;3.57;;
6757;SDS011;3416;53.074;8.822;2023-06-14T09:32:30;6.20;;;3.37;;
6757;SDS011;3416;53.074;8.822;2023-06-14T09:34:57;3.67;;;3.37;;
6757;SDS011;3416;53.074;8.822;2023-06-14T09:37:29;5.00;;;3.80;;
6757;SDS011;3416;53.074;8.822;2023-06-14T09:39:57;4.43;;;3.57;;
6757;SDS011;3416;53.074;8.822;2023-06-14T09:42:25;7.87;;;4.20;;
6757;SDS011;3416;53.074;8.822;2023-06-14T09:44:53;3.40;;;3.20;;
6757;SDS011;3416;53.074;8.822;2023-06-14T09:47:21;9.27;;;3.67;;
6757;SDS011;3416;53.074;8.822;2023-06-14T09:49:49;4.23;;;3.83;;
6757;SDS011;3416;53.074;8.822;2023-06-14T09:52:17;6.53;;;3.73;;
6757;SDS011;3416;53.074;8.822;2023-06-14T09:54:47;5.47;;;4.40;;
6757;SDS011;3416;53.074;8.822;2023-06-14T09:57:15;3.90;;;3.60;;
6757;SDS011;3416;53.074;8.822;2023-06-14T09:59:43;4.60;;;2.87;;
6757;SDS011;3416;53.074;8.822;2023-06-14T10:02:14;4.77;;;4.30;;
6757;SDS011;3416;53.074;8.822;2023-06-14T10:04:50;4.20;;;3.80;;
6757;SDS011;3416;53.074;8.822;2023-06-14T10:07:20;5.93;;;4.50;;
6757;SDS011;3416;53.074;8.822;2023-06-14T10:09:49;5.63;;;3.73;;
6757;SDS011;3416;53.074;8.822;2023-06-14T10:12:18;4.30;;;3.40;;
6757;SDS011;3416;53.074;8.822;2023-06-14T10:14:48;3.80;;;3.50;;
6757;SDS011;3416;53.074;8.822;2023-06-14T10:17:19;4.00;;;3.47;;
6757;SDS011;3416;53.074;8.822;2023-06-14T10:19:54;6.23;;;4.33;;
6757;SDS011;3416;53.074;8.822;2023-06-14T10:22:23;4.10;;;3.80;;
6757;SDS011;3416;53.074;8.822;2023-06-14T10:24:58;4.33;;;4.00;;
6757;SDS011;3416;53.074;8.822;2023-06-14T10:27:27;3.77;;;3.47;;
6757;SDS011;3416;53.074;8.822;2023-06-14T10:30:03;8.80;;;3.73;;
6757;SDS011;3416;53.074;8.822;2023-06-14T10:32:33;5.20;;;4.00;;
6757;SDS011;3416;53.074;8.822;2023-06-14T10:35:01;4.13;;;3.70;;
6757;SDS011;3416;53.074;8.822;2023-06-14T10:37:30;5.57;;;3.80;;
6757;SDS011;3416;53.074;8.822;2023-06-14T10:39:59;6.17;;;3.57;;
6757;SDS011;3416;53.074;8.822;2023-06-14T10:42:31;4.33;;;4.03;;
6757;SDS011;3416;53.074;8.822;2023-06-14T10:44:59;4.50;;;4.10;;
6757;SDS011;3416;53.074;8.822;2023-06-14T10:47:27;4.77;;;4.37;;
6757;SDS011;3416;53.074;8.822;2023-06-14T10:49:55;6.60;;;3.97;;
6757;SDS011;3416;53.074;8.822;2023-06-14T10:52:24;10.07;;;3.80;;
6757;SDS011;3416;53.074;8.822;2023-06-14T10:57:43;5.57;;;4.30;;
6757;SDS011;3416;53.074;8.822;2023-06-14T11:00:12;5.30;;;4.60;;
6757;SDS011;3416;53.074;8.822;2023-06-14T11:05:53;8.00;;;4.10;;
6757;SDS011;3416;53.074;8.822;2023-06-14T11:08:27;6.67;;;4.50;;
6757;SDS011;3416;53.074;8.822;2023-06-14T11:11:10;4.33;;;3.93;;
6757;SDS011;3416;53.074;8.822;2023-06-14T11:13:41;6.40;;;4.70;;
6757;SDS011;3416;53.074;8.822;2023-06-14T11:16:11;4.90;;;4.10;;
6757;SDS011;3416;53.074;8.822;2023-06-14T11:18:40;7.90;;;5.00;;
6757;SDS011;3416;53.074;8.822;2023-06-14T11:21:07;11.37;;;4.90;;
6757;SDS011;3416;53.074;8.822;2023-06-14T11:23:34;6.23;;;4.30;;
6757;SDS011;3416;53.074;8.822;2023-06-14T11:26:02;4.67;;;4.07;;
6757;SDS011;3416;53.074;8.822;2023-06-14T11:28:38;4.87;;;4.40;;
6757;SDS011;3416;53.074;8.822;2023-06-14T11:31:07;6.93;;;4.77;;
6757;SDS011;3416;53.074;8.822;2023-06-14T11:33:35;5.40;;;4.73;;
6757;SDS011;3416;53.074;8.822;2023-06-14T11:36:03;6.20;;;3.63;;
6757;SDS011;3416;53.074;8.822;2023-06-14T11:38:34;8.17;;;5.40;;
6757;SDS011;3416;53.074;8.822;2023-06-14T11:41:02;5.20;;;4.57;;
6757;SDS011;3416;53.074;8.822;2023-06-14T11:43:29;5.23;;;4.63;;
6757;SDS011;3416;53.074;8.822;2023-06-14T11:45:59;5.80;;;5.20;;
6757;SDS011;3416;53.074;8.822;2023-06-14T11:48:35;5.40;;;4.50;;
6757;SDS011;3416;53.074;8.822;2023-06-14T11:51:02;5.90;;;5.13;;
6757;SDS011;3416;53.074;8.822;2023-06-14T11:53:29;5.47;;;4.70;;
6757;SDS011;3416;53.074;8.822;2023-06-14T11:55:57;8.70;;;4.83;;
6757;SDS011;3416;53.074;8.822;2023-06-14T11:58:24;6.33;;;4.77;;
6757;SDS011;3416;53.074;8.822;2023-06-14T12:00:52;5.13;;;4.30;;
6757;SDS011;3416;53.074;8.822;2023-06-14T12:03:23;7.70;;;4.57;;
6757;SDS011;3416;53.074;8.822;2023-06-14T12:06:01;8.90;;;4.90;;
6757;SDS011;3416;53.074;8.822;2023-06-14T12:08:32;8.43;;;4.60;;
6757;SDS011;3416;53.074;8.822;2023-06-14T12:11:03;6.77;;;4.30;;
6757;SDS011;3416;53.074;8.822;2023-06-14T12:13:32;9.53;;;4.60;;
6757;SDS011;3416;53.074;8.822;2023-06-14T12:15:59;8.60;;;5.03;;
6757;SDS011;3416;53.074;8.822;2023-06-14T12:18:34;6.73;;;4.77;;
6757;SDS011;3416;53.074;8.822;2023-06-14T12:21:02;8.20;;;4.23;;
6757;SDS011;3416;53.074;8.822;2023-06-14T12:23:44;7.23;;;4.60;;
6757;SDS011;3416;53.074;8.822;2023-06-14T12:26:14;5.27;;;4.83;;
6757;SDS011;3416;53.074;8.822;2023-06-14T12:28:42;4.73;;;4.33;;
6757;SDS011;3416;53.074;8.822;2023-06-14T12:31:10;4.97;;;4.53;;
6757;SDS011;3416;53.074;8.822;2023-06-14T12:33:39;5.50;;;3.73;;
6757;SDS011;3416;53.074;8.822;2023-06-14T12:36:06;6.07;;;4.73;;
6757;SDS011;3416;53.074;8.822;2023-06-14T12:38:35;5.33;;;4.83;;
6757;SDS011;3416;53.074;8.822;2023-06-14T12:41:02;5.87;;;4.27;;
6757;SDS011;3416;53.074;8.822;2023-06-14T12:43:28;5.47;;;4.33;;
6757;SDS011;3416;53.074;8.822;2023-06-14T12:45:57;5.90;;;4.87;;
6757;SDS011;3416;53.074;8.822;2023-06-14T12:48:24;6.70;;;4.70;;
6757;SDS011;3416;53.074;8.822;2023-06-14T12:50:54;5.60;;;4.67;;
6757;SDS011;3416;53.074;8.822;2023-06-14T12:53:21;5.90;;;4.70;;
6757;SDS011;3416;53.074;8.822;2023-06-14T12:55:48;4.93;;;4.53;;
6757;SDS011;3416;53.074;8.822;2023-06-14T12:58:15;9.30;;;4.53;;
6757;SDS011;3416;53.074;8.822;2023-06-14T13:00:44;5.60;;;4.50;;
6757;SDS011;3416;53.074;8.822;2023-06-14T13:03:11;5.40;;;4.90;;
6757;SDS011;3416;53.074;8.822;2023-06-14T13:05:38;6.90;;;4.60;;
6757;SDS011;3416;53.074;8.822;2023-06-14T13:08:08;4.73;;;4.33;;
6757;SDS011;3416;53.074;8.822;2023-06-14T13:10:35;4.53;;;4.00;;
6757;SDS011;3416;53.074;8.822;2023-06-14T13:13:03;6.40;;;4.97;;
6757;SDS011;3416;53.074;8.822;2023-06-14T13:15:30;5.30;;;4.10;;
6757;SDS011;3416;53.074;8.822;2023-06-14T13:17:57;8.30;;;5.13;;
6757;SDS011;3416;53.074;8.822;2023-06-14T13:20:24;9.10;;;5.00;;
6757;SDS011;3416;53.074;8.822;2023-06-14T13:22:51;6.80;;;4.43;;
6757;SDS011;3416;53.074;8.822;2023-06-14T13:25:19;6.27;;;4.23;;
6757;SDS011;3416;53.074;8.822;2023-06-14T13:27:47;9.37;;;4.60;;
6757;SDS011;3416;53.074;8.822;2023-06-14T13:30:14;4.93;;;4.30;;
6757;SDS011;3416;53.074;8.822;2023-06-14T13:32:41;6.23;;;4.10;;
6757;SDS011;3416;53.074;8.822;2023-06-14T13:35:08;7.50;;;4.87;;
6757;SDS011;3416;53.074;8.822;2023-06-14T13:37:35;5.90;;;5.40;;
6757;SDS011;3416;53.074;8.822;2023-06-14T13:40:02;5.33;;;4.80;;
6757;SDS011;3416;53.074;8.822;2023-06-14T13:42:31;4.90;;;3.97;;
6757;SDS011;3416;53.074;8.822;2023-06-14T13:44:58;4.93;;;4.43;;
6757;SDS011;3416;53.074;8.822;2023-06-14T13:47:25;5.43;;;4.93;;
6757;SDS011;3416;53.074;8.822;2023-06-14T13:49:52;5.10;;;4.60;;
6757;SDS011;3416;53.074;8.822;2023-06-14T13:52:20;6.00;;;3.83;;
6757;SDS011;3416;53.074;8.822;2023-06-14T13:54:47;13.67;;;5.03;;
6757;SDS011;3416;53.074;8.822;2023-06-14T13:57:14;5.77;;;5.07;;
6757;SDS011;3416;53.074;8.822;2023-06-14T13:59:43;4.87;;;4.37;;
6757;SDS011;3416;53.074;8.822;2023-06-14T14:02:10;4.87;;;4.37;;
6757;SDS011;3416;53.074;8.822;2023-06-14T14:04:37;5.93;;;4.90;;
6757;SDS011;3416;53.074;8.822;2023-06-14T14:07:05;4.23;;;3.93;;
6757;SDS011;3416;53.074;8.822;2023-06-14T14:09:32;5.57;;;4.97;;
6757;SDS011;3416;53.074;8.822;2023-06-14T14:12:00;5.70;;;4.70;;
6757;SDS011;3416;53.074;8.822;2023-06-14T14:14:28;5.40;;;4.90;;
6757;SDS011;3416;53.074;8.822;2023-06-14T14:16:57;5.10;;;4.70;;
6757;SDS011;3416;53.074;8.822;2023-06-14T14:19:24;4.73;;;4.33;;
6757;SDS011;3416;53.074;8.822;2023-06-14T14:21:53;7.57;;;4.67;;
6757;SDS011;3416;53.074;8.822;2023-06-14T14:24:20;5.03;;;4.53;;
6757;SDS011;3416;53.074;8.822;2023-06-14T14:26:47;5.33;;;4.83;;
6757;SDS011;3416;53.074;8.822;2023-06-14T14:29:15;6.07;;;4.83;;
6757;SDS011;3416;53.074;8.822;2023-06-14T14:31:44;6.97;;;4.30;;
6757;SDS011;3416;53.074;8.822;2023-06-14T14:34:12;5.03;;;4.53;;
6757;SDS011;3416;53.074;8.822;2023-06-14T14:36:39;5.60;;;4.50;;
6757;SDS011;3416;53.074;8.822;2023-06-14T14:39:07;5.50;;;4.90;;
6757;SDS011;3416;53.074;8.822;2023-06-14T14:41:34;7.53;;;4.30;;
6757;SDS011;3416;53.074;8.822;2023-06-14T14:44:02;8.57;;;4.60;;
6757;SDS011;3416;53.074;8.822;2023-06-14T14:46:30;5.83;;;4.47;;
6757;SDS011;3416;53.074;8.822;2023-06-14T14:48:58;5.93;;;4.90;;
6757;SDS011;3416;53.074;8.822;2023-06-14T14:51:26;6.30;;;4.33;;
6757;SDS011;3416;53.074;8.822;2023-06-14T14:53:53;4.17;;;3.60;;
6757;SDS011;3416;53.074;8.822;2023-06-14T14:56:21;9.70;;;4.87;;
6757;SDS011;3416;53.074;8.822;2023-06-14T14:58:48;7.90;;;5.13;;
6757;SDS011;3416;53.074;8.822;2023-06-14T15:01:15;4.63;;;4.30;;
6757;SDS011;3416;53.074;8.822;2023-06-14T15:03:43;6.70;;;4.70;;
6757;SDS011;3416;53.074;8.822;2023-06-14T15:06:10;4.97;;;4.53;;
6757;SDS011;3416;53.074;8.822;2023-06-14T15:08:38;5.40;;;4.60;;
6757;SDS011;3416;53.074;8.822;2023-06-14T15:11:05;4.43;;;4.13;;
6757;SDS011;3416;53.074;8.822;2023-06-14T15:13:32;6.53;;;5.40;;
6757;SDS011;3416;53.074;8.822;2023-06-14T15:15:59;5.27;;;4.77;;
6757;SDS011;3416;53.074;8.822;2023-06-14T15:18:25;7.40;;;4.40;;
6757;SDS011;3416;53.074;8.822;2023-06-14T15:20:52;5.23;;;4.43;;
6757;SDS011;3416;53.074;8.822;2023-06-14T15:23:21;5.03;;;4.50;;
6757;SDS011;3416;53.074;8.822;2023-06-14T15:25:49;5.87;;;4.83;;
6757;SDS011;3416;53.074;8.822;2023-06-14T15:28:16;8.87;;;5.00;;
6757;SDS011;3416;53.074;8.822;2023-06-14T15:30:44;8.67;;;4.70;;
6757;SDS011;3416;53.074;8.822;2023-06-14T15:33:11;7.23;;;5.10;;